sensor_id;sensor_type;location;lat;lon;timestamp;pressure;altitude;pressure_sealevel;temperature;humidity
53550;BME280;67273;52.914;-0.982;2023-04-19T00:00:03;102617.25;;;19.90;45.80
53550;BME280;67273;52.914;-0.982;2023-04-19T00:02:32;102617.44;;;19.88;45.87
53550;BME280;67273;52.914;-0.982;2023-04-19T00:04:58;102615.75;;;19.87;45.88
53550;BME280;67273;52.914;-0.982;2023-04-19T00:07:24;102626.66;;;19.87;45.81
53550;BME280;67273;52.914;-0.982;2023-04-19T00:09:50;102622.03;;;19.88;45.96
53550;BME280;67273;52.914;-0.982;2023-04-19T00:12:15;102619.53;;;19.86;45.80
53550;BME280;67273;52.914;-0.982;2023-04-19T00:14:41;102626.84;;;19.86;45.86
53550;BME280;67273;52.914;-0.982;2023-04-19T00:17:07;102623.28;;;19.85;45.93
53550;BME280;67273;52.914;-0.982;2023-04-19T00:19:34;102620.75;;;19.84;45.92
53550;BME280;67273;52.914;-0.982;2023-04-19T00:22:00;102620.75;;;19.84;45.90
53550;BME280;67273;52.914;-0.982;2023-04-19T00:24:25;102617.19;;;19.83;45.84
53550;BME280;67273;52.914;-0.982;2023-04-19T00:26:51;102614.66;;;19.82;45.91
53550;BME280;67273;52.914;-0.982;2023-04-19T00:29:17;102607.31;;;19.82;45.85
53550;BME280;67273;52.914;-0.982;2023-04-19T00:31:42;102612.75;;;19.82;45.82
53550;BME280;67273;52.914;-0.982;2023-04-19T00:34:08;102610.22;;;19.81;45.96
53550;BME280;67273;52.914;-0.982;2023-04-19T00:36:35;102612.13;;;19.80;45.97
53550;BME280;67273;52.914;-0.982;2023-04-19T00:39:02;102607.72;;;19.79;45.86
53550;BME280;67273;52.914;-0.982;2023-04-19T00:41:28;102609.41;;;19.80;45.98
53550;BME280;67273;52.914;-0.982;2023-04-19T00:43:53;102604.13;;;19.79;45.86
53550;BME280;67273;52.914;-0.982;2023-04-19T00:46:19;102604.13;;;19.79;45.85
53550;BME280;67273;52.914;-0.982;2023-04-19T00:48:46;102593.44;;;19.77;45.88
53550;BME280;67273;52.914;-0.982;2023-04-19T00:51:12;102592.59;;;19.77;45.85
53550;BME280;67273;52.914;-0.982;2023-04-19T00:53:40;102594.50;;;19.76;45.75
53550;BME280;67273;52.914;-0.982;2023-04-19T00:56:06;102588.19;;;19.75;45.86
53550;BME280;67273;52.914;-0.982;2023-04-19T00:58:32;102587.34;;;19.75;45.95
53550;BME280;67273;52.914;-0.982;2023-04-19T01:00:58;102587.53;;;19.73;45.78
53550;BME280;67273;52.914;-0.982;2023-04-19T01:03:25;102587.53;;;19.73;45.82
53550;BME280;67273;52.914;-0.982;2023-04-19T01:05:54;102588.41;;;19.74;45.86
53550;BME280;67273;52.914;-0.982;2023-04-19T01:08:20;102585.00;;;19.72;45.88
53550;BME280;67273;52.914;-0.982;2023-04-19T01:10:47;102583.94;;;19.73;45.81
53550;BME280;67273;52.914;-0.982;2023-04-19T01:13:14;102580.56;;;19.71;45.73
53550;BME280;67273;52.914;-0.982;2023-04-19T01:15:40;102580.56;;;19.71;45.89
53550;BME280;67273;52.914;-0.982;2023-04-19T01:18:05;102578.88;;;19.70;45.78
53550;BME280;67273;52.914;-0.982;2023-04-19T01:20:31;102574.47;;;19.69;45.77
53550;BME280;67273;52.914;-0.982;2023-04-19T01:22:58;102573.63;;;19.68;45.92
53550;BME280;67273;52.914;-0.982;2023-04-19T01:25:26;102574.69;;;19.67;45.80
53550;BME280;67273;52.914;-0.982;2023-04-19T01:27:52;102567.31;;;19.68;46.02
53550;BME280;67273;52.914;-0.982;2023-04-19T01:30:17;102571.94;;;19.67;45.84
53550;BME280;67273;52.914;-0.982;2023-04-19T01:32:43;102571.13;;;19.67;45.78
53550;BME280;67273;52.914;-0.982;2023-04-19T01:35:09;102559.34;;;19.66;45.76
53550;BME280;67273;52.914;-0.982;2023-04-19T01:37:38;102562.25;;;19.65;45.75
53550;BME280;67273;52.914;-0.982;2023-04-19T01:40:06;102557.69;;;19.65;45.71
53550;BME280;67273;52.914;-0.982;2023-04-19T01:42:32;102555.97;;;19.64;45.88
53550;BME280;67273;52.914;-0.982;2023-04-19T01:44:59;102552.41;;;19.64;45.75
53550;BME280;67273;52.914;-0.982;2023-04-19T01:47:26;102548.00;;;19.63;45.87
53550;BME280;67273;52.914;-0.982;2023-04-19T01:49:51;102548.00;;;19.63;45.81
53550;BME280;67273;52.914;-0.982;2023-04-19T01:52:19;102546.31;;;19.62;45.74
53550;BME280;67273;52.914;-0.982;2023-04-19T01:54:48;102543.59;;;19.62;45.70
53550;BME280;67273;52.914;-0.982;2023-04-19T01:57:19;102542.72;;;19.61;45.72
53550;BME280;67273;52.914;-0.982;2023-04-19T01:59:46;102547.34;;;19.61;45.73
53550;BME280;67273;52.914;-0.982;2023-04-19T02:02:12;102537.28;;;19.61;45.72
53550;BME280;67273;52.914;-0.982;2023-04-19T02:04:39;102542.09;;;19.59;45.84
53550;BME280;67273;52.914;-0.982;2023-04-19T02:07:05;102540.44;;;19.58;45.75
53550;BME280;67273;52.914;-0.982;2023-04-19T02:09:34;102533.28;;;19.57;45.77
53550;BME280;67273;52.914;-0.982;2023-04-19T02:12:00;102537.69;;;19.58;45.89
53550;BME280;67273;52.914;-0.982;2023-04-19T02:14:30;102536.19;;;19.55;45.83
53550;BME280;67273;52.914;-0.982;2023-04-19T02:16:57;102537.91;;;19.56;45.71
53550;BME280;67273;52.914;-0.982;2023-04-19T02:19:23;102538.09;;;19.55;45.74
53550;BME280;67273;52.914;-0.982;2023-04-19T02:21:48;102535.38;;;19.55;45.77
53550;BME280;67273;52.914;-0.982;2023-04-19T02:24:14;102527.38;;;19.53;45.74
53550;BME280;67273;52.914;-0.982;2023-04-19T02:26:41;102530.94;;;19.54;45.75
53550;BME280;67273;52.914;-0.982;2023-04-19T02:29:06;102534.53;;;19.54;45.84
53550;BME280;67273;52.914;-0.982;2023-04-19T02:31:35;102527.38;;;19.53;45.57
53550;BME280;67273;52.914;-0.982;2023-04-19T02:34:01;102529.28;;;19.53;45.73
53550;BME280;67273;52.914;-0.982;2023-04-19T02:36:26;102522.13;;;19.52;45.80
53550;BME280;67273;52.914;-0.982;2023-04-19T02:38:53;102521.28;;;19.51;45.76
53550;BME280;67273;52.914;-0.982;2023-04-19T02:41:19;102529.47;;;19.51;45.76
53550;BME280;67273;52.914;-0.982;2023-04-19T02:43:45;102524.03;;;19.51;45.75
53550;BME280;67273;52.914;-0.982;2023-04-19T02:46:11;102517.72;;;19.51;45.75
53550;BME280;67273;52.914;-0.982;2023-04-19T02:48:39;102509.75;;;19.49;45.72
53550;BME280;67273;52.914;-0.982;2023-04-19T02:51:04;102514.16;;;19.50;45.84
53550;BME280;67273;52.914;-0.982;2023-04-19T02:53:31;102516.22;;;19.48;45.81
53550;BME280;67273;52.914;-0.982;2023-04-19T02:55:56;102511.84;;;19.47;45.88
53550;BME280;67273;52.914;-0.982;2023-04-19T02:58:22;102517.28;;;19.47;45.89
53550;BME280;67273;52.914;-0.982;2023-04-19T03:01:04;102515.59;;;19.46;45.84
53550;BME280;67273;52.914;-0.982;2023-04-19T03:03:30;102515.59;;;19.46;45.78
53550;BME280;67273;52.914;-0.982;2023-04-19T03:05:58;102515.59;;;19.46;45.76
53550;BME280;67273;52.914;-0.982;2023-04-19T03:08:26;102503.00;;;19.45;46.05
53550;BME280;67273;52.914;-0.982;2023-04-19T03:10:54;102507.63;;;19.45;45.86
53550;BME280;67273;52.914;-0.982;2023-04-19T03:13:20;102506.78;;;19.44;45.81
53550;BME280;67273;52.914;-0.982;2023-04-19T03:15:46;102502.16;;;19.45;45.75
53550;BME280;67273;52.914;-0.982;2023-04-19T03:18:12;102506.78;;;19.44;45.74
53550;BME280;67273;52.914;-0.982;2023-04-19T03:20:41;102506.78;;;19.44;45.72
53550;BME280;67273;52.914;-0.982;2023-04-19T03:23:08;102505.09;;;19.43;45.79
53550;BME280;67273;52.914;-0.982;2023-04-19T03:25:33;102499.63;;;19.43;45.76
53550;BME280;67273;52.914;-0.982;2023-04-19T03:28:13;102497.97;;;19.42;45.82
53550;BME280;67273;52.914;-0.982;2023-04-19T03:30:59;102495.25;;;19.42;45.66
53550;BME280;67273;52.914;-0.982;2023-04-19T03:33:25;102503.41;;;19.42;45.68
53550;BME280;67273;52.914;-0.982;2023-04-19T03:35:52;102497.97;;;19.42;45.67
53550;BME280;67273;52.914;-0.982;2023-04-19T03:38:20;102502.56;;;19.42;45.68
53550;BME280;67273;52.914;-0.982;2023-04-19T03:40:46;102498.16;;;19.41;45.65
53550;BME280;67273;52.914;-0.982;2023-04-19T03:43:14;102501.72;;;19.41;45.66
53550;BME280;67273;52.914;-0.982;2023-04-19T03:45:40;102505.50;;;19.40;45.63
53550;BME280;67273;52.914;-0.982;2023-04-19T03:48:06;102505.50;;;19.40;45.68
53550;BME280;67273;52.914;-0.982;2023-04-19T03:50:31;102498.34;;;19.39;45.75
53550;BME280;67273;52.914;-0.982;2023-04-19T03:52:58;102496.47;;;19.40;45.59
53550;BME280;67273;52.914;-0.982;2023-04-19T03:55:25;102501.09;;;19.39;45.70
53550;BME280;67273;52.914;-0.982;2023-04-19T03:57:51;102491.22;;;19.38;45.64
53550;BME280;67273;52.914;-0.982;2023-04-19T04:00:25;102497.53;;;19.38;45.77
53550;BME280;67273;52.914;-0.982;2023-04-19T04:02:57;102502.09;;;19.38;45.62
53550;BME280;67273;52.914;-0.982;2023-04-19T04:05:22;102498.56;;;19.37;45.64
53550;BME280;67273;52.914;-0.982;2023-04-19T04:07:48;102494.16;;;19.36;45.73
53550;BME280;67273;52.914;-0.982;2023-04-19T04:10:14;102491.44;;;19.36;45.64
53550;BME280;67273;52.914;-0.982;2023-04-19T04:12:43;102500.44;;;19.37;45.51
53550;BME280;67273;52.914;-0.982;2023-04-19T04:15:13;102498.75;;;19.36;45.58
53550;BME280;67273;52.914;-0.982;2023-04-19T04:17:45;102498.75;;;19.36;45.64
53550;BME280;67273;52.914;-0.982;2023-04-19T04:20:11;102494.34;;;19.35;45.41
53550;BME280;67273;52.914;-0.982;2023-04-19T04:22:40;102494.34;;;19.35;45.70
53550;BME280;67273;52.914;-0.982;2023-04-19T04:25:07;102492.66;;;19.34;45.65
53550;BME280;67273;52.914;-0.982;2023-04-19T04:27:37;102494.56;;;19.33;45.71
53550;BME280;67273;52.914;-0.982;2023-04-19T04:30:06;102489.09;;;19.33;45.58
53550;BME280;67273;52.914;-0.982;2023-04-19T04:32:32;102493.72;;;19.33;45.69
53550;BME280;67273;52.914;-0.982;2023-04-19T04:35:00;102492.84;;;19.32;45.65
53550;BME280;67273;52.914;-0.982;2023-04-19T04:37:36;102493.72;;;19.33;45.61
53550;BME280;67273;52.914;-0.982;2023-04-19T04:40:04;102491.19;;;19.31;45.70
53550;BME280;67273;52.914;-0.982;2023-04-19T04:42:31;102494.94;;;19.30;45.50
53550;BME280;67273;52.914;-0.982;2023-04-19T04:44:58;102493.91;;;19.31;45.74
53550;BME280;67273;52.914;-0.982;2023-04-19T04:47:31;102494.94;;;19.30;45.63
53550;BME280;67273;52.914;-0.982;2023-04-19T04:49:59;102482.38;;;19.29;45.57
53550;BME280;67273;52.914;-0.982;2023-04-19T04:52:26;102484.03;;;19.30;45.61
53550;BME280;67273;52.914;-0.982;2023-04-19T04:55:00;102488.66;;;19.30;45.32
53550;BME280;67273;52.914;-0.982;2023-04-19T04:57:30;102489.69;;;19.29;45.49
53550;BME280;67273;52.914;-0.982;2023-04-19T04:59:57;102488.03;;;19.28;45.64
53550;BME280;67273;52.914;-0.982;2023-04-19T05:02:27;102490.75;;;19.28;45.60
53550;BME280;67273;52.914;-0.982;2023-04-19T05:04:54;102490.75;;;19.28;45.69
53550;BME280;67273;52.914;-0.982;2023-04-19T05:07:20;102494.50;;;19.27;45.60
53550;BME280;67273;52.914;-0.982;2023-04-19T05:09:46;102491.78;;;19.27;45.54
53550;BME280;67273;52.914;-0.982;2023-04-19T05:12:16;102492.78;;;19.26;45.66
53550;BME280;67273;52.914;-0.982;2023-04-19T05:14:42;102499.94;;;19.27;45.56
53550;BME280;67273;52.914;-0.982;2023-04-19T05:17:08;102503.69;;;19.26;45.47
53550;BME280;67273;52.914;-0.982;2023-04-19T05:19:33;102507.47;;;19.25;45.57
53550;BME280;67273;52.914;-0.982;2023-04-19T05:22:06;102503.69;;;19.26;45.54
53550;BME280;67273;52.914;-0.982;2023-04-19T05:24:32;102510.22;;;19.25;45.67
53550;BME280;67273;52.914;-0.982;2023-04-19T05:26:59;102508.31;;;19.25;45.60
53550;BME280;67273;52.914;-0.982;2023-04-19T05:29:26;102504.75;;;19.25;45.64
53550;BME280;67273;52.914;-0.982;2023-04-19T05:31:53;102506.66;;;19.24;45.58
53550;BME280;67273;52.914;-0.982;2023-04-19T05:34:27;102509.56;;;19.23;45.66
53550;BME280;67273;52.914;-0.982;2023-04-19T05:36:55;102517.56;;;19.24;45.64
53550;BME280;67273;52.914;-0.982;2023-04-19T05:39:22;102514.16;;;19.22;45.60
53550;BME280;67273;52.914;-0.982;2023-04-19T05:41:48;102521.31;;;19.23;45.49
53550;BME280;67273;52.914;-0.982;2023-04-19T05:44:14;102515.84;;;19.23;46.09
53550;BME280;67273;52.914;-0.982;2023-04-19T05:46:40;102522.38;;;19.29;45.80
53550;BME280;67273;52.914;-0.982;2023-04-19T05:49:08;102522.25;;;19.37;45.76
53550;BME280;67273;52.914;-0.982;2023-04-19T05:51:59;102523.97;;;19.45;46.29
53550;BME280;67273;52.914;-0.982;2023-04-19T05:54:35;102523.00;;;19.52;46.45
53550;BME280;67273;52.914;-0.982;2023-04-19T05:57:01;102519.88;;;19.62;46.04
53550;BME280;67273;52.914;-0.982;2023-04-19T05:59:27;102520.22;;;19.74;45.90
53550;BME280;67273;52.914;-0.982;2023-04-19T06:01:53;102524.88;;;19.87;45.56
53550;BME280;67273;52.914;-0.982;2023-04-19T06:04:20;102529.16;;;20.03;45.25
53550;BME280;67273;52.914;-0.982;2023-04-19T06:06:46;102521.63;;;20.05;45.02
53550;BME280;67273;52.914;-0.982;2023-04-19T06:09:13;102521.00;;;20.09;44.93
53550;BME280;67273;52.914;-0.982;2023-04-19T06:11:41;102524.38;;;20.11;44.77
53550;BME280;67273;52.914;-0.982;2023-04-19T06:14:07;102515.13;;;20.12;44.67
53550;BME280;67273;52.914;-0.982;2023-04-19T06:16:33;102522.09;;;20.15;44.75
53550;BME280;67273;52.914;-0.982;2023-04-19T06:18:59;102524.41;;;20.18;44.80
53550;BME280;67273;52.914;-0.982;2023-04-19T06:21:25;102521.44;;;20.20;44.71
53550;BME280;67273;52.914;-0.982;2023-04-19T06:23:51;102520.41;;;20.21;44.62
53550;BME280;67273;52.914;-0.982;2023-04-19T06:26:17;102530.31;;;20.22;44.49
53550;BME280;67273;52.914;-0.982;2023-04-19T06:28:44;102528.41;;;20.22;44.65
53550;BME280;67273;52.914;-0.982;2023-04-19T06:31:09;102516.41;;;20.23;44.54
53550;BME280;67273;52.914;-0.982;2023-04-19T06:33:36;102518.13;;;20.24;44.53
53550;BME280;67273;52.914;-0.982;2023-04-19T06:36:02;102516.03;;;20.26;44.38
53550;BME280;67273;52.914;-0.982;2023-04-19T06:38:28;102523.19;;;20.27;44.58
53550;BME280;67273;52.914;-0.982;2023-04-19T06:40:54;102523.19;;;20.27;44.40
53550;BME280;67273;52.914;-0.982;2023-04-19T06:43:20;102524.84;;;20.28;44.29
53550;BME280;67273;52.914;-0.982;2023-04-19T06:45:47;102525.72;;;20.29;44.45
53550;BME280;67273;52.914;-0.982;2023-04-19T06:48:13;102528.63;;;20.27;44.28
53550;BME280;67273;52.914;-0.982;2023-04-19T06:50:39;102528.44;;;20.29;44.42
53550;BME280;67273;52.914;-0.982;2023-04-19T06:53:05;102525.72;;;20.29;44.33
53550;BME280;67273;52.914;-0.982;2023-04-19T06:55:30;102526.53;;;20.29;44.35
53550;BME280;67273;52.914;-0.982;2023-04-19T06:57:56;102524.84;;;20.28;44.31
53550;BME280;67273;52.914;-0.982;2023-04-19T07:00:22;102539.13;;;20.30;44.27
53550;BME280;67273;52.914;-0.982;2023-04-19T07:02:49;102534.72;;;20.29;44.26
53550;BME280;67273;52.914;-0.982;2023-04-19T07:05:15;102540.34;;;20.21;44.80
53550;BME280;67273;52.914;-0.982;2023-04-19T07:07:41;102538.16;;;19.97;45.57
53550;BME280;67273;52.914;-0.982;2023-04-19T07:10:08;102534.81;;;20.01;47.01
53550;BME280;67273;52.914;-0.982;2023-04-19T07:12:33;102534.50;;;20.24;46.71
53550;BME280;67273;52.914;-0.982;2023-04-19T07:14:59;102537.28;;;20.38;47.06
53550;BME280;67273;52.914;-0.982;2023-04-19T07:17:26;102537.47;;;20.43;47.14
53550;BME280;67273;52.914;-0.982;2023-04-19T07:19:53;102531.22;;;20.49;47.27
53550;BME280;67273;52.914;-0.982;2023-04-19T07:22:18;102536.28;;;20.52;47.32
53550;BME280;67273;52.914;-0.982;2023-04-19T07:24:44;102534.81;;;20.56;47.42
53550;BME280;67273;52.914;-0.982;2023-04-19T07:27:10;102533.75;;;20.57;47.47
53550;BME280;67273;52.914;-0.982;2023-04-19T07:29:36;102537.97;;;20.60;47.25
53550;BME280;67273;52.914;-0.982;2023-04-19T07:32:02;102543.06;;;20.63;47.25
53550;BME280;67273;52.914;-0.982;2023-04-19T07:34:29;102538.00;;;20.66;47.01
53550;BME280;67273;52.914;-0.982;2023-04-19T07:36:56;102542.22;;;20.69;47.22
53550;BME280;67273;52.914;-0.982;2023-04-19T07:39:22;102543.03;;;20.69;47.22
53550;BME280;67273;52.914;-0.982;2023-04-19T07:41:47;102531.69;;;20.73;47.10
53550;BME280;67273;52.914;-0.982;2023-04-19T07:44:13;102540.53;;;20.75;47.21
53550;BME280;67273;52.914;-0.982;2023-04-19T07:46:41;102548.50;;;20.69;47.16
53550;BME280;67273;52.914;-0.982;2023-04-19T07:49:07;102541.78;;;20.65;47.02
53550;BME280;67273;52.914;-0.982;2023-04-19T07:51:33;102545.13;;;20.61;46.88
53550;BME280;67273;52.914;-0.982;2023-04-19T07:54:01;102546.75;;;20.42;47.86
53550;BME280;67273;52.914;-0.982;2023-04-19T07:56:26;102543.81;;;20.50;47.23
53550;BME280;67273;52.914;-0.982;2023-04-19T07:58:52;102544.66;;;20.57;47.01
53550;BME280;67273;52.914;-0.982;2023-04-19T08:01:18;102539.84;;;20.52;47.35
53550;BME280;67273;52.914;-0.982;2023-04-19T08:03:43;102542.97;;;20.49;46.82
53550;BME280;67273;52.914;-0.982;2023-04-19T08:06:10;102553.44;;;20.32;48.13
53550;BME280;67273;52.914;-0.982;2023-04-19T08:08:37;102548.47;;;20.56;47.84
53550;BME280;67273;52.914;-0.982;2023-04-19T08:11:04;102550.81;;;20.66;47.86
53550;BME280;67273;52.914;-0.982;2023-04-19T08:13:30;102544.94;;;20.69;47.91
53550;BME280;67273;52.914;-0.982;2023-04-19T08:15:56;102545.38;;;20.73;47.83
53550;BME280;67273;52.914;-0.982;2023-04-19T08:18:23;102536.75;;;20.76;47.84
53550;BME280;67273;52.914;-0.982;2023-04-19T08:20:49;102544.66;;;20.50;48.10
53550;BME280;67273;52.914;-0.982;2023-04-19T08:23:14;102539.19;;;20.44;48.55
53550;BME280;67273;52.914;-0.982;2023-04-19T08:25:40;102541.09;;;20.57;47.94
53550;BME280;67273;52.914;-0.982;2023-04-19T08:28:07;102543.06;;;20.63;47.74
53550;BME280;67273;52.914;-0.982;2023-04-19T08:30:33;102537.16;;;20.66;47.49
53550;BME280;67273;52.914;-0.982;2023-04-19T08:32:59;102538.00;;;20.66;47.42
53550;BME280;67273;52.914;-0.982;2023-04-19T08:35:25;102538.00;;;20.66;47.19
53550;BME280;67273;52.914;-0.982;2023-04-19T08:37:51;102539.69;;;20.67;46.85
53550;BME280;67273;52.914;-0.982;2023-04-19T08:40:17;102539.88;;;20.66;46.79
53550;BME280;67273;52.914;-0.982;2023-04-19T08:42:43;102538.22;;;20.65;46.83
53550;BME280;67273;52.914;-0.982;2023-04-19T08:45:11;102544.50;;;20.65;46.80
53550;BME280;67273;52.914;-0.982;2023-04-19T08:47:39;102552.69;;;20.65;46.77
53550;BME280;67273;52.914;-0.982;2023-04-19T08:50:06;102551.03;;;20.64;46.71
53550;BME280;67273;52.914;-0.982;2023-04-19T08:52:33;102556.69;;;20.63;46.42
53550;BME280;67273;52.914;-0.982;2023-04-19T08:55:00;102552.78;;;20.30;47.40
53550;BME280;67273;52.914;-0.982;2023-04-19T08:57:29;102555.03;;;20.13;48.20
53550;BME280;67273;52.914;-0.982;2023-04-19T08:59:55;102553.31;;;20.06;48.53
53550;BME280;67273;52.914;-0.982;2023-04-19T09:02:23;102539.25;;;20.09;49.04
53550;BME280;67273;52.914;-0.982;2023-04-19T09:04:49;102543.94;;;20.28;48.89
53550;BME280;67273;52.914;-0.982;2023-04-19T09:07:22;102545.09;;;20.54;48.37
53550;BME280;67273;52.914;-0.982;2023-04-19T09:10:03;102544.91;;;20.62;48.43
53550;BME280;67273;52.914;-0.982;2023-04-19T09:12:30;102539.69;;;20.67;48.30
53550;BME280;67273;52.914;-0.982;2023-04-19T09:14:55;102536.34;;;20.72;48.31
53550;BME280;67273;52.914;-0.982;2023-04-19T09:17:21;102540.53;;;20.75;48.03
53550;BME280;67273;52.914;-0.982;2023-04-19T09:19:49;102540.13;;;20.78;48.05
53550;BME280;67273;52.914;-0.982;2023-04-19T09:22:15;102544.31;;;20.80;47.82
53550;BME280;67273;52.914;-0.982;2023-04-19T09:24:41;102547.91;;;20.81;47.88
53550;BME280;67273;52.914;-0.982;2023-04-19T09:27:07;102544.97;;;20.82;47.83
53550;BME280;67273;52.914;-0.982;2023-04-19T09:29:35;102543.06;;;20.83;48.01
53550;BME280;67273;52.914;-0.982;2023-04-19T09:32:00;102540.97;;;20.85;47.89
53550;BME280;67273;52.914;-0.982;2023-04-19T09:34:26;102538.66;;;20.68;48.41
53550;BME280;67273;52.914;-0.982;2023-04-19T09:36:56;102540.31;;;20.76;47.81
53550;BME280;67273;52.914;-0.982;2023-04-19T09:39:29;102534.66;;;20.78;47.84
53550;BME280;67273;52.914;-0.982;2023-04-19T09:41:54;102536.56;;;20.77;47.86
53550;BME280;67273;52.914;-0.982;2023-04-19T09:44:21;102542.22;;;20.76;47.54
53550;BME280;67273;52.914;-0.982;2023-04-19T09:46:47;102534.22;;;20.74;47.43
53550;BME280;67273;52.914;-0.982;2023-04-19T09:49:16;102534.22;;;20.74;47.45
53550;BME280;67273;52.914;-0.982;2023-04-19T09:51:45;102532.56;;;20.80;47.35
53550;BME280;67273;52.914;-0.982;2023-04-19T09:54:14;102533.19;;;20.82;47.72
53550;BME280;67273;52.914;-0.982;2023-04-19T09:56:40;102531.31;;;20.82;47.96
53550;BME280;67273;52.914;-0.982;2023-04-19T09:59:07;102538.25;;;20.85;47.97
53550;BME280;67273;52.914;-0.982;2023-04-19T10:01:36;102533.59;;;20.85;48.09
53550;BME280;67273;52.914;-0.982;2023-04-19T10:04:03;102534.47;;;20.86;48.30
53550;BME280;67273;52.914;-0.982;2023-04-19T10:06:30;102537.19;;;20.86;48.26
53550;BME280;67273;52.914;-0.982;2023-04-19T10:09:00;102527.94;;;20.87;48.21
53550;BME280;67273;52.914;-0.982;2023-04-19T10:11:31;102527.53;;;20.90;48.12
53550;BME280;67273;52.914;-0.982;2023-04-19T10:14:02;102531.72;;;20.93;48.08
53550;BME280;67273;52.914;-0.982;2023-04-19T10:16:29;102527.53;;;20.97;48.20
53550;BME280;67273;52.914;-0.982;2023-04-19T10:18:55;102513.88;;;20.97;48.05
53550;BME280;67273;52.914;-0.982;2023-04-19T10:21:22;102523.88;;;20.56;48.26
53550;BME280;67273;52.914;-0.982;2023-04-19T10:23:49;102528.88;;;20.39;48.84
53550;BME280;67273;52.914;-0.982;2023-04-19T10:26:15;102520.25;;;20.29;48.99
53550;BME280;67273;52.914;-0.982;2023-04-19T10:28:42;102519.59;;;20.20;48.88
53550;BME280;67273;52.914;-0.982;2023-04-19T10:31:11;102519.75;;;20.12;49.38
53550;BME280;67273;52.914;-0.982;2023-04-19T10:33:40;102518.91;;;20.11;49.17
53550;BME280;67273;52.914;-0.982;2023-04-19T10:36:09;102522.69;;;20.10;49.46
53550;BME280;67273;52.914;-0.982;2023-04-19T10:38:37;102521.22;;;20.08;49.53
53550;BME280;67273;52.914;-0.982;2023-04-19T10:41:03;102513.03;;;20.14;49.37
53550;BME280;67273;52.914;-0.982;2023-04-19T10:43:30;102516.00;;;20.20;49.06
53550;BME280;67273;52.914;-0.982;2023-04-19T10:46:00;102516.66;;;20.22;48.77
53550;BME280;67273;52.914;-0.982;2023-04-19T10:48:34;102519.16;;;20.23;48.58
53550;BME280;67273;52.914;-0.982;2023-04-19T10:51:03;102510.97;;;20.23;48.50
53550;BME280;67273;52.914;-0.982;2023-04-19T10:53:46;102501.94;;;20.23;48.42
53550;BME280;67273;52.914;-0.982;2023-04-19T10:56:14;102505.50;;;20.23;48.54
53550;BME280;67273;52.914;-0.982;2023-04-19T10:59:12;102507.19;;;20.24;48.93
53550;BME280;67273;52.914;-0.982;2023-04-19T11:01:47;102506.78;;;20.27;48.73
53550;BME280;67273;52.914;-0.982;2023-04-19T11:04:14;102507.63;;;20.28;50.11
53550;BME280;67273;52.914;-0.982;2023-04-19T11:06:56;102501.41;;;20.54;50.00
53550;BME280;67273;52.914;-0.982;2023-04-19T11:09:23;102506.69;;;20.62;49.61
53550;BME280;67273;52.914;-0.982;2023-04-19T11:11:50;102501.00;;;20.64;49.42
53550;BME280;67273;52.914;-0.982;2023-04-19T11:14:18;102503.53;;;20.65;49.34
53550;BME280;67273;52.914;-0.982;2023-04-19T11:16:46;102497.03;;;20.66;49.11
53550;BME280;67273;52.914;-0.982;2023-04-19T11:19:14;102499.78;;;20.66;48.88
53550;BME280;67273;52.914;-0.982;2023-04-19T11:21:40;102494.31;;;20.66;48.87
53550;BME280;67273;52.914;-0.982;2023-04-19T11:24:06;102497.03;;;20.66;48.57
53550;BME280;67273;52.914;-0.982;2023-04-19T11:26:32;102491.78;;;20.65;48.46
53550;BME280;67273;52.914;-0.982;2023-04-19T11:28:59;102495.34;;;20.65;48.13
53550;BME280;67273;52.914;-0.982;2023-04-19T11:31:25;102492.38;;;20.60;48.24
53550;BME280;67273;52.914;-0.982;2023-04-19T11:33:52;102486.47;;;20.43;49.58
53550;BME280;67273;52.914;-0.982;2023-04-19T11:36:18;102491.88;;;20.30;51.45
53550;BME280;67273;52.914;-0.982;2023-04-19T11:38:46;102489.75;;;20.19;50.50
53550;BME280;67273;52.914;-0.982;2023-04-19T11:41:12;102486.41;;;20.23;51.46
53550;BME280;67273;52.914;-0.982;2023-04-19T11:43:37;102479.13;;;20.44;50.59
53550;BME280;67273;52.914;-0.982;2023-04-19T11:46:04;102477.47;;;20.56;49.79
53550;BME280;67273;52.914;-0.982;2023-04-19T11:48:31;102479.59;;;20.67;49.39
53550;BME280;67273;52.914;-0.982;2023-04-19T11:50:59;102487.38;;;20.77;48.93
53550;BME280;67273;52.914;-0.982;2023-04-19T11:53:26;102482.97;;;20.83;48.47
53550;BME280;67273;52.914;-0.982;2023-04-19T11:55:53;102475.41;;;20.92;48.08
53550;BME280;67273;52.914;-0.982;2023-04-19T11:58:26;102466.78;;;21.01;47.77
53550;BME280;67273;52.914;-0.982;2023-04-19T12:00:54;102469.31;;;21.10;47.44
53550;BME280;67273;52.914;-0.982;2023-04-19T12:03:20;102467.81;;;21.14;47.40
53550;BME280;67273;52.914;-0.982;2023-04-19T12:05:54;102465.09;;;21.20;47.20
53550;BME280;67273;52.914;-0.982;2023-04-19T12:08:30;102464.47;;;21.25;46.99
53550;BME280;67273;52.914;-0.982;2023-04-19T12:10:57;102470.34;;;21.29;47.01
53550;BME280;67273;52.914;-0.982;2023-04-19T12:13:24;102461.94;;;21.30;46.91
53550;BME280;67273;52.914;-0.982;2023-04-19T12:15:51;102468.63;;;21.34;46.74
53550;BME280;67273;52.914;-0.982;2023-04-19T12:18:16;102465.69;;;21.36;46.43
53550;BME280;67273;52.914;-0.982;2023-04-19T12:20:43;102459.81;;;21.25;46.71
53550;BME280;67273;52.914;-0.982;2023-04-19T12:23:10;102455.66;;;20.83;47.94
53550;BME280;67273;52.914;-0.982;2023-04-19T12:25:39;102461.06;;;20.56;48.40
53550;BME280;67273;52.914;-0.982;2023-04-19T12:28:06;102456.00;;;20.40;48.03
53550;BME280;67273;52.914;-0.982;2023-04-19T12:30:32;102457.69;;;20.47;47.81
53550;BME280;67273;52.914;-0.982;2023-04-19T12:32:59;102457.28;;;20.50;48.16
53550;BME280;67273;52.914;-0.982;2023-04-19T12:35:25;102455.38;;;20.51;48.24
53550;BME280;67273;52.914;-0.982;2023-04-19T12:37:52;102447.19;;;20.51;48.47
53550;BME280;67273;52.914;-0.982;2023-04-19T12:40:18;102448.22;;;20.50;48.40